Reno, NV (89501)

1:54 PM PST on February 08, 2016 (GMT -0800)
UNR Campus, LMR Roof | | Change Station
CLOSE
Current Station
Personal Weather Station
Location: Reno, NV
Elevation: 4570 ft
Nearby Weather Stations

Elev 4570 ft 39.54 °N, 119.81 °W | Updated 3 minutes ago

Clear
Clear
55.8 °F
Feels Like 55.8 °F
N
11.2
Wind Variable Wind from North
Gusts 13.5 mph

Today
High -- | Low -- °F
--% Chance of Precip.
Yesterday
High -- | Low -- °F
Precip. -- in
Pressure 30.52 in
Visibility 10.0 miles
Clouds Clear
Dew Point 33 °F
Humidity 41%
Rainfall 0.00 in
Snow Depth Not available.
7:00 AM 5:27 PM
New Moon, 0% visible
METAR KRNO 082055Z VRB04KT 10SM CLR 12/01 A3053 RMK AO2 SLP333 T01220006 58023
Pressure 30.52 in
Visibility 10.0 miles
Clouds Clear
Dew Point 33 °F
Humidity 41%
Rainfall 0.00 in
Snow Depth Not available.
7:00 AM 5:27 PM
New Moon, 0% visible
METAR KRNO 082055Z VRB04KT 10SM CLR 12/01 A3053 RMK AO2 SLP333 T01220006 58023

10-Day Weather Forecast

Almanac

Astronomy

Feb. 08, 2016 Rise Set
Actual Time
Civil Twilight
Nautical Twilight
Astronomical Twilight
Moon
Length of Visible Light
Length of Day
Tomorrow will be .
, % of the Moon is Illuminated

Today's Extremes

State Highs State Lows

Community

WunderPhotos

Upload Photos

1,891,512 photos uploaded!

WunderBlog® & News

Nearby

Air Quality

  Air Quality AQ Index Pollutant
Not available.

Snow Depth

Station Depth Elevation

Earthquake Activity

City Distance Mag. Time & Date
Minimum magnitude displayed is 2.5.

Coastal Water Temperatures

Place Temperature

Stations

Nearby Weather Stations

Station Location Temp. Windchill Dew Point Humidity Wind Precip. Elev Updated Type
                   

Watches & Warnings

There are currently no watches in effect.